Airfield :
LOGIN :

Register | Disclaimer

   EN    FR    IT 

 










Legend :    VFR   Marginal VFR   IFR   Intensive IFR   Very Intensive IFR
Visi :
Ceiling :
>= 8 km
>= 3000ft
5 to 8 km
1000 to 3000 ft
1500m to 5 km
500 to 1000 ft
800 to 1500m
200 to 500 ft
< 800m
< 200 ft
Symbols :   Thunderstorms  Fog  Heavy snow  Heavy precipitations  Wind > 20 kt
SIGMETs :     Misc.  Thunderstorms  Icing  Turbulence  Mountain Waves  Volcanic Ashes







- Airport Elevation : 121 ft
- IATA code : HUY
- Download approach charts


EGNJ - Humberside

CURRENT METAR :
  • 150950Z 31011KT 9999 VCSH FEW016CB SCT023 03/02 Q0997

EXPIRED METARs :
  • 150920Z 33013KT 9999 VCSH FEW023 SCT035 04/02 Q0996
  • 150850Z 32013KT 9999 FEW025 SCT030 03/02 Q0995
  • 150820Z 32013KT 9999 FEW025 SCT030 03/02 Q0994
  • 150750Z 31012KT 9999 FEW031 03/01 Q0993
  • 150720Z 31013KT 9999 -SHRA SCT031 03/01 Q0993

TAF TAF EGNJ
Valid from the 15 at 09:00 until the 15 at 18:00 UTC


150800Z 1509/1518 32012KT 9999 SCT025
TEMPO 1509/1516 34015G26KT 6000 SHRA BKN012
ATIS : +44 1652 682 020
No reported NOTAMs for that airfield.



MET'MAP, your aeronautical weather chart ! - Copyright ORBIFLY December 2007 - Disclaimer

ORBIFLY MET'MAP TEAM :

Programming & Development : Alexandra Zaïnal
Concept & Development : Baudouin d'Aumeries
Co-Development & Prog : Marc-Olivier Méhu
Technical & hardware support : Manuel Goepfert

Contact : metmap@orbifly.com




SOURCES & CREDITS :

   NOAA